createdAt,value
2018-07-31T00:00:11.923Z,25.409851
2018-07-31T00:01:11.945Z,25.289001
2018-07-31T00:02:11.918Z,25.359497
2018-07-31T00:03:11.904Z,25.349426
2018-07-31T00:04:11.946Z,25.379639
2018-07-31T00:05:11.900Z,25.349426
2018-07-31T00:06:11.918Z,25.309143
2018-07-31T00:07:11.926Z,25.258789
2018-07-31T00:08:11.918Z,25.228577
2018-07-31T00:09:11.914Z,25.309143
2018-07-31T00:10:11.920Z,25.289001
2018-07-31T00:11:11.920Z,25.278931
2018-07-31T00:12:11.916Z,25.228577
2018-07-31T00:13:11.926Z,25.218506
2018-07-31T00:14:11.917Z,25.208435
2018-07-31T00:15:11.919Z,25.208435
2018-07-31T00:16:11.933Z,25.077515
2018-07-31T00:17:11.939Z,25.168152
2018-07-31T00:18:11.938Z,25.067444
2018-07-31T00:19:11.951Z,25.077515
2018-07-31T00:20:11.942Z,25.097656
2018-07-31T00:21:11.944Z,25.027161
2018-07-31T00:22:11.952Z,24.976807
2018-07-31T00:23:11.947Z,25.037231
2018-07-31T00:24:11.968Z,25.007019
2018-07-31T00:25:11.987Z,25.007019
2018-07-31T00:26:11.976Z,24.956665
2018-07-31T00:27:11.981Z,25.007019
2018-07-31T00:28:11.996Z,24.916382
2018-07-31T00:29:12.025Z,24.876099
2018-07-31T00:30:12.021Z,24.976807
2018-07-31T00:31:12.059Z,24.926453
2018-07-31T00:32:12.053Z,24.926453
2018-07-31T00:33:12.076Z,24.795532
2018-07-31T00:34:12.075Z,24.805603
2018-07-31T00:35:12.114Z,24.795532
2018-07-31T00:36:12.126Z,24.855957
2018-07-31T00:37:12.140Z,24.805603
2018-07-31T00:38:12.139Z,24.755249
2018-07-31T00:39:12.153Z,24.795532
2018-07-31T00:40:12.159Z,24.725037
2018-07-31T00:41:12.162Z,24.76532
2018-07-31T00:42:12.197Z,24.735107
2018-07-31T00:43:12.218Z,24.805603
2018-07-31T00:44:12.230Z,24.755249
2018-07-31T00:45:12.243Z,24.704895
2018-07-31T00:46:12.254Z,24.775391
2018-07-31T00:47:12.276Z,24.76532
2018-07-31T00:48:12.287Z,24.664612
2018-07-31T00:49:12.330Z,24.694824
2018-07-31T00:50:12.314Z,24.694824
2018-07-31T00:51:12.325Z,24.654541
2018-07-31T00:52:12.336Z,24.704895
2018-07-31T00:53:12.345Z,24.664612
2018-07-31T00:54:12.347Z,24.584045
2018-07-31T00:55:12.376Z,24.553833
2018-07-31T00:56:12.386Z,24.634399
2018-07-31T00:57:12.378Z,24.634399
2018-07-31T00:58:12.392Z,24.51355
2018-07-31T00:59:12.406Z,24.533691
2018-07-31T01:00:12.423Z,24.614258
2018-07-31T01:01:12.443Z,24.604187
2018-07-31T01:02:12.434Z,24.573975
2018-07-31T01:03:12.459Z,24.543762
2018-07-31T01:04:12.479Z,24.483337
2018-07-31T01:05:12.492Z,24.473267
2018-07-31T01:06:12.509Z,24.432983
2018-07-31T01:07:12.531Z,24.473267
2018-07-31T01:08:12.545Z,24.422913
2018-07-31T01:09:12.562Z,24.3927
2018-07-31T01:10:12.572Z,24.362488
2018-07-31T01:11:12.578Z,24.3927
2018-07-31T01:12:12.606Z,24.3927
2018-07-31T01:13:12.658Z,24.382629
2018-07-31T01:14:12.684Z,24.422913
2018-07-31T01:15:12.706Z,24.3927
2018-07-31T01:16:12.701Z,24.382629
2018-07-31T01:17:12.713Z,24.362488
2018-07-31T01:18:12.741Z,24.26178
2018-07-31T01:19:12.774Z,24.281921
2018-07-31T01:20:12.754Z,24.332275
2018-07-31T01:21:12.783Z,24.332275
2018-07-31T01:22:12.793Z,24.241638
2018-07-31T01:23:12.808Z,24.291992
2018-07-31T01:24:12.827Z,24.211426
2018-07-31T01:25:12.870Z,24.201355
2018-07-31T01:26:12.866Z,24.181213
2018-07-31T01:27:12.876Z,24.231567
2018-07-31T01:28:12.902Z,24.211426
2018-07-31T01:29:12.929Z,24.231567
2018-07-31T01:30:12.972Z,24.14093
2018-07-31T01:31:13.004Z,24.100647
2018-07-31T01:32:13.068Z,24.100647
2018-07-31T01:33:13.059Z,24.110718
2018-07-31T01:34:13.071Z,24.060364
2018-07-31T01:35:13.111Z,24.050293
2018-07-31T01:36:13.133Z,24.100647
2018-07-31T01:37:13.174Z,24.030151
2018-07-31T01:38:13.182Z,24.020081
2018-07-31T01:39:13.203Z,24.050293
2018-07-31T01:40:13.211Z,24.020081
2018-07-31T01:41:13.225Z,23.989868
2018-07-31T01:42:13.244Z,23.959656
2018-07-31T01:43:13.274Z,23.959656
2018-07-31T01:44:13.274Z,23.979797
2018-07-31T01:45:13.313Z,23.959656
2018-07-31T01:46:13.338Z,23.989868
2018-07-31T01:47:13.355Z,23.919373
2018-07-31T01:48:13.375Z,23.979797
2018-07-31T01:49:13.388Z,23.959656
2018-07-31T01:50:13.402Z,23.959656
2018-07-31T01:51:13.421Z,23.858948
2018-07-31T01:52:13.445Z,23.879089
2018-07-31T01:53:13.467Z,23.909302
2018-07-31T01:54:13.505Z,23.869019
2018-07-31T01:55:13.554Z,23.798523
2018-07-31T01:56:13.550Z,23.768311
2018-07-31T01:57:13.563Z,23.75824
2018-07-31T01:58:13.633Z,23.798523
2018-07-31T01:59:14.629Z,23.778381
2018-07-31T02:00:13.649Z,23.75824
2018-07-31T02:01:13.685Z,23.687744
2018-07-31T02:02:13.704Z,23.707886
2018-07-31T02:03:13.715Z,23.738098
2018-07-31T02:04:13.728Z,23.707886
2018-07-31T02:05:13.763Z,23.687744
2018-07-31T02:06:13.841Z,23.627319
2018-07-31T02:07:13.834Z,23.657532
2018-07-31T02:08:13.849Z,23.657532
2018-07-31T02:09:13.879Z,23.576965
2018-07-31T02:10:13.890Z,23.617249
2018-07-31T02:11:13.921Z,23.617249
2018-07-31T02:12:13.942Z,23.607178
2018-07-31T02:13:13.977Z,23.556824
2018-07-31T02:14:13.985Z,23.536682
2018-07-31T02:15:14.033Z,23.496399
2018-07-31T02:16:14.056Z,23.496399
2018-07-31T02:17:14.132Z,23.496399
2018-07-31T02:18:14.113Z,23.496399
2018-07-31T02:19:14.146Z,23.476257
2018-07-31T02:20:14.175Z,23.456116
2018-07-31T02:21:14.198Z,23.395691
2018-07-31T02:22:14.241Z,23.38562
2018-07-31T02:23:14.252Z,23.395691
2018-07-31T02:24:14.305Z,23.355408
2018-07-31T02:25:14.347Z,23.335266
2018-07-31T02:26:14.381Z,23.38562
2018-07-31T02:27:14.409Z,23.305054
2018-07-31T02:28:14.552Z,23.305054
2018-07-31T02:29:14.476Z,23.355408
2018-07-31T02:30:14.516Z,23.335266
2018-07-31T02:31:14.857Z,23.2547
2018-07-31T02:32:14.591Z,23.274841
2018-07-31T02:33:14.620Z,23.234558
2018-07-31T02:34:14.659Z,23.244629
2018-07-31T02:35:14.680Z,23.2547
2018-07-31T02:36:14.749Z,23.244629
2018-07-31T02:37:14.793Z,23.274841
2018-07-31T02:38:14.805Z,23.204346
2018-07-31T02:39:14.829Z,23.214417
2018-07-31T02:40:14.875Z,23.184204
2018-07-31T02:41:14.895Z,23.184204
2018-07-31T02:42:14.930Z,23.184204
2018-07-31T02:43:14.977Z,23.214417
2018-07-31T02:44:15.002Z,23.174133
2018-07-31T02:45:15.030Z,23.153992
2018-07-31T02:46:15.067Z,23.174133
2018-07-31T02:47:15.089Z,23.123779
2018-07-31T02:48:15.149Z,23.13385
2018-07-31T02:49:15.204Z,23.123779
2018-07-31T02:50:15.224Z,23.103638
2018-07-31T02:51:16.276Z,23.053284
2018-07-31T02:52:16.327Z,23.033142
2018-07-31T02:53:15.379Z,23.083496
2018-07-31T02:54:15.411Z,23.083496
2018-07-31T02:55:15.466Z,23.063354
2018-07-31T02:56:15.515Z,23.053284
2018-07-31T02:57:15.532Z,23.053284
2018-07-31T02:58:15.653Z,22.982788
2018-07-31T02:59:15.589Z,22.982788
2018-07-31T03:00:15.644Z,22.992859
2018-07-31T03:01:15.698Z,22.992859
2018-07-31T03:02:15.711Z,22.962646
2018-07-31T03:03:15.752Z,22.992859
2018-07-31T03:04:15.808Z,22.962646
2018-07-31T03:05:15.839Z,22.942505
2018-07-31T03:06:15.886Z,22.912292
2018-07-31T03:07:15.952Z,22.872009
2018-07-31T03:08:15.999Z,22.912292
2018-07-31T03:09:16.011Z,22.902222
2018-07-31T03:10:16.055Z,22.851868
2018-07-31T03:11:16.087Z,22.851868
2018-07-31T03:12:16.153Z,22.851868
2018-07-31T03:13:16.210Z,22.841797
2018-07-31T03:14:16.248Z,22.841797
2018-07-31T03:15:17.305Z,22.811584
2018-07-31T03:16:16.347Z,22.801514
2018-07-31T03:17:16.393Z,22.801514
2018-07-31T03:18:16.428Z,22.76123
2018-07-31T03:19:16.479Z,22.76123
2018-07-31T03:20:16.505Z,22.76123
2018-07-31T03:21:17.547Z,22.731018
2018-07-31T03:22:16.577Z,22.700806
2018-07-31T03:23:16.630Z,22.700806
2018-07-31T03:24:16.663Z,22.680664
2018-07-31T03:25:16.720Z,22.720947
2018-07-31T03:26:16.736Z,22.680664
2018-07-31T03:27:16.781Z,22.650452
2018-07-31T03:28:16.848Z,22.63031
2018-07-31T03:29:16.852Z,22.63031
2018-07-31T03:30:16.909Z,22.600098
2018-07-31T03:31:16.964Z,22.620239
2018-07-31T03:32:16.987Z,22.569885
2018-07-31T03:33:17.030Z,22.600098
2018-07-31T03:34:17.080Z,22.539673
2018-07-31T03:35:17.137Z,22.539673
2018-07-31T03:36:17.176Z,22.529602
2018-07-31T03:37:17.249Z,22.539673
2018-07-31T03:38:18.266Z,22.50946
2018-07-31T03:39:17.305Z,22.50946
2018-07-31T03:40:17.353Z,22.469177
2018-07-31T03:41:17.388Z,22.449036
2018-07-31T03:42:17.442Z,22.428894
2018-07-31T03:43:17.485Z,22.449036
2018-07-31T03:44:17.512Z,22.408752
2018-07-31T03:45:17.542Z,22.428894
2018-07-31T03:46:17.602Z,22.438965
2018-07-31T03:47:17.651Z,22.408752
2018-07-31T03:48:17.691Z,22.388611
2018-07-31T03:49:17.738Z,22.408752
2018-07-31T03:50:17.765Z,22.37854
2018-07-31T03:51:17.816Z,22.348328
2018-07-31T03:52:17.870Z,22.348328
2018-07-31T03:53:17.908Z,22.358398
2018-07-31T03:54:17.954Z,22.348328
2018-07-31T03:55:18.007Z,22.318115
2018-07-31T03:56:18.090Z,22.287903
2018-07-31T03:57:18.093Z,22.328186
2018-07-31T03:58:18.129Z,22.287903
2018-07-31T03:59:18.162Z,22.277832
2018-07-31T04:00:18.215Z,22.277832
2018-07-31T04:01:18.264Z,22.24762
2018-07-31T04:02:18.277Z,22.24762
2018-07-31T04:03:18.324Z,22.25769
2018-07-31T04:04:18.365Z,22.217407
2018-07-31T04:05:18.429Z,22.217407
2018-07-31T04:06:18.462Z,22.197266
2018-07-31T04:07:18.549Z,22.167053
2018-07-31T04:08:18.540Z,22.177124
2018-07-31T04:09:18.595Z,22.167053
2018-07-31T04:10:18.632Z,22.167053
2018-07-31T04:11:18.661Z,22.177124
2018-07-31T04:12:18.707Z,22.167053
2018-07-31T04:13:18.767Z,22.146912
2018-07-31T04:14:18.776Z,22.146912
2018-07-31T04:15:18.816Z,22.136841
2018-07-31T04:16:18.859Z,22.167053
2018-07-31T04:17:18.929Z,22.146912
2018-07-31T04:18:18.985Z,22.146912
2018-07-31T04:19:19.028Z,22.136841
2018-07-31T04:20:19.039Z,22.146912
2018-07-31T04:21:19.084Z,22.177124
2018-07-31T04:22:19.145Z,22.146912
2018-07-31T04:23:19.177Z,22.146912
2018-07-31T04:24:19.214Z,22.12677
2018-07-31T04:25:19.259Z,22.136841
2018-07-31T04:26:19.291Z,22.136841
2018-07-31T04:27:19.329Z,22.12677
2018-07-31T04:28:19.354Z,22.146912
2018-07-31T04:29:19.401Z,22.12677
2018-07-31T04:30:19.462Z,22.136841
2018-07-31T04:31:19.523Z,22.136841
2018-07-31T04:32:19.526Z,22.177124
2018-07-31T04:33:19.569Z,22.106628
2018-07-31T04:34:19.627Z,22.146912
2018-07-31T04:35:19.668Z,22.136841
2018-07-31T04:36:19.760Z,22.177124
2018-07-31T04:37:19.770Z,22.167053
2018-07-31T04:38:19.782Z,22.197266
2018-07-31T04:39:19.821Z,22.167053
2018-07-31T04:40:19.874Z,22.12677
2018-07-31T04:41:20.020Z,22.167053
2018-07-31T04:43:20.024Z,22.146912
2018-07-31T04:44:20.067Z,22.146912
2018-07-31T04:45:20.107Z,22.136841
2018-07-31T04:46:20.163Z,22.136841
2018-07-31T04:47:20.205Z,22.146912
2018-07-31T04:48:20.265Z,22.167053
2018-07-31T04:49:20.310Z,22.136841
2018-07-31T04:50:20.413Z,22.167053
2018-07-31T04:51:20.396Z,22.136841
2018-07-31T04:52:20.424Z,22.167053
2018-07-31T04:53:20.481Z,22.146912
2018-07-31T04:54:20.544Z,22.167053
2018-07-31T04:55:20.575Z,22.177124
2018-07-31T04:56:20.632Z,22.177124
2018-07-31T04:57:20.666Z,22.177124
2018-07-31T04:58:20.709Z,22.177124
2018-07-31T04:59:20.750Z,22.217407
2018-07-31T05:00:20.799Z,22.197266
2018-07-31T05:01:20.838Z,22.25769
2018-07-31T05:02:20.887Z,22.287903
2018-07-31T05:03:20.916Z,22.318115
2018-07-31T05:04:20.985Z,22.287903
2018-07-31T05:05:21.036Z,22.328186
2018-07-31T05:06:21.076Z,22.328186
2018-07-31T05:07:21.107Z,22.358398
2018-07-31T05:08:21.134Z,22.37854
2018-07-31T05:09:21.195Z,22.408752
2018-07-31T05:10:21.236Z,22.428894
2018-07-31T05:11:21.282Z,22.449036
2018-07-31T05:12:21.338Z,22.479248
2018-07-31T05:13:21.361Z,22.49939
2018-07-31T05:14:21.385Z,22.529602
2018-07-31T05:15:21.422Z,22.549744
2018-07-31T05:16:21.454Z,22.590027
2018-07-31T05:17:21.509Z,22.600098
2018-07-31T05:18:21.577Z,22.63031
2018-07-31T05:19:21.570Z,22.650452
2018-07-31T05:20:21.606Z,22.700806
2018-07-31T05:21:21.639Z,22.720947
2018-07-31T05:22:21.662Z,22.731018
2018-07-31T05:23:21.708Z,22.801514
2018-07-31T05:24:21.756Z,22.811584
2018-07-31T05:25:21.811Z,22.801514
2018-07-31T05:26:21.810Z,22.851868
2018-07-31T05:27:21.846Z,22.872009
2018-07-31T05:28:21.872Z,22.88208
2018-07-31T05:29:21.899Z,22.872009
2018-07-31T05:30:21.960Z,22.942505
2018-07-31T05:31:21.981Z,22.982788
2018-07-31T05:32:22.029Z,22.992859
2018-07-31T05:33:22.092Z,23.00293
2018-07-31T05:34:22.113Z,23.033142
2018-07-31T05:35:22.155Z,23.053284
2018-07-31T05:36:22.191Z,23.063354
2018-07-31T05:37:22.226Z,23.103638
2018-07-31T05:38:22.261Z,23.123779
2018-07-31T05:39:22.300Z,23.153992
2018-07-31T05:40:22.341Z,23.184204
2018-07-31T05:41:22.371Z,23.204346
2018-07-31T05:42:22.429Z,23.234558
2018-07-31T05:43:22.456Z,23.2547
2018-07-31T05:44:22.480Z,23.274841
2018-07-31T05:45:22.529Z,23.305054
2018-07-31T05:46:22.567Z,23.284912
2018-07-31T05:47:22.595Z,23.315125
2018-07-31T05:48:22.631Z,23.355408
2018-07-31T05:49:22.672Z,23.425903
2018-07-31T05:50:22.715Z,23.405762
2018-07-31T05:51:22.735Z,23.466187
2018-07-31T05:52:22.778Z,23.546753
2018-07-31T05:53:22.813Z,23.536682
2018-07-31T05:54:22.854Z,23.50647
2018-07-31T05:55:22.883Z,23.617249
2018-07-31T05:56:22.927Z,23.607178
2018-07-31T05:57:22.998Z,23.627319
2018-07-31T05:58:22.995Z,23.617249
2018-07-31T05:59:23.017Z,23.657532
2018-07-31T06:00:23.045Z,23.677673
2018-07-31T06:01:23.079Z,23.687744
2018-07-31T06:02:23.104Z,23.728027
2018-07-31T06:03:23.121Z,23.768311
2018-07-31T06:04:23.136Z,23.778381
2018-07-31T06:05:23.156Z,23.808594
2018-07-31T06:06:23.170Z,23.828735
2018-07-31T06:07:23.188Z,23.838806
2018-07-31T06:08:23.232Z,23.869019
2018-07-31T06:09:23.248Z,23.919373
2018-07-31T06:10:23.262Z,23.959656
2018-07-31T06:11:23.332Z,23.959656
2018-07-31T06:12:23.341Z,23.979797
2018-07-31T06:13:23.346Z,24.050293
2018-07-31T06:14:23.396Z,24.01001
2018-07-31T06:15:23.471Z,24.060364
2018-07-31T06:16:23.420Z,24.161072
2018-07-31T06:17:23.457Z,24.171143
2018-07-31T06:18:23.485Z,24.171143
2018-07-31T06:19:23.502Z,24.171143
2018-07-31T06:20:23.509Z,24.14093
2018-07-31T06:21:23.522Z,24.201355
2018-07-31T06:22:23.526Z,24.332275
2018-07-31T06:23:23.572Z,24.291992
2018-07-31T06:24:23.873Z,24.362488
2018-07-31T06:25:23.574Z,24.322205
2018-07-31T06:26:23.591Z,24.422913
2018-07-31T06:27:23.606Z,24.473267
2018-07-31T06:28:23.608Z,24.533691
2018-07-31T06:29:23.626Z,24.51355
2018-07-31T06:30:23.653Z,24.503479
2018-07-31T06:31:23.636Z,24.553833
2018-07-31T06:32:23.628Z,24.614258
2018-07-31T06:33:23.650Z,24.664612
2018-07-31T06:34:23.663Z,24.684753
2018-07-31T06:35:23.671Z,24.805603
2018-07-31T06:36:23.690Z,24.725037
2018-07-31T06:37:23.680Z,24.805603
2018-07-31T06:38:23.692Z,24.956665
2018-07-31T06:39:23.723Z,24.956665
2018-07-31T06:40:23.730Z,24.946594
2018-07-31T06:41:23.762Z,25.037231
2018-07-31T06:42:23.788Z,25.037231
2018-07-31T06:43:23.782Z,25.097656
2018-07-31T06:44:23.783Z,25.137939
2018-07-31T06:45:23.796Z,25.228577
2018-07-31T06:46:23.784Z,25.289001
2018-07-31T06:47:23.799Z,25.319214
2018-07-31T06:48:23.826Z,25.379639
2018-07-31T06:49:23.872Z,25.440063
2018-07-31T06:50:23.809Z,25.510559
2018-07-31T06:51:23.802Z,25.591125
2018-07-31T06:52:23.822Z,25.601196
2018-07-31T06:53:23.829Z,25.681763
2018-07-31T06:54:23.865Z,25.752258
2018-07-31T06:55:23.821Z,25.7724
2018-07-31T06:56:23.817Z,25.852966
2018-07-31T06:57:23.815Z,25.933533
2018-07-31T06:58:23.815Z,25.963745
2018-07-31T06:59:23.828Z,26.004028
2018-07-31T07:00:23.843Z,26.104736
2018-07-31T07:01:23.836Z,26.14502
2018-07-31T07:02:23.824Z,26.15509
2018-07-31T07:03:23.822Z,26.326294
2018-07-31T07:04:23.840Z,26.356506
2018-07-31T07:05:23.829Z,26.437073
2018-07-31T07:06:23.832Z,26.507568
2018-07-31T07:07:23.818Z,26.557922
2018-07-31T07:08:23.799Z,26.698914
2018-07-31T07:09:23.839Z,26.749268
2018-07-31T07:10:23.780Z,26.849976
2018-07-31T07:11:23.769Z,26.950684
2018-07-31T07:12:23.787Z,27.001038
2018-07-31T07:13:23.753Z,27.081604
2018-07-31T07:14:23.735Z,27.1521
2018-07-31T07:15:23.739Z,27.252808
2018-07-31T07:16:23.759Z,27.363586
2018-07-31T07:17:23.662Z,27.444153
2018-07-31T07:18:23.686Z,27.514648
2018-07-31T07:19:23.639Z,27.625427
2018-07-31T07:20:23.625Z,27.736206
2018-07-31T07:21:23.605Z,27.796631
2018-07-31T07:22:23.581Z,27.897339
2018-07-31T07:23:23.556Z,27.957764
2018-07-31T07:24:23.533Z,28.078613
2018-07-31T07:25:23.509Z,28.149109
2018-07-31T07:26:23.475Z,28.219604
2018-07-31T07:27:23.449Z,28.390808
2018-07-31T07:28:23.415Z,28.41095
2018-07-31T07:29:23.380Z,28.511658
2018-07-31T07:30:23.350Z,28.602295
2018-07-31T07:31:23.317Z,28.642578
2018-07-31T07:32:23.293Z,28.753357
2018-07-31T07:33:23.273Z,28.79364
2018-07-31T07:34:23.224Z,28.884277
2018-07-31T07:35:23.184Z,28.964844
2018-07-31T07:36:23.168Z,29.095764
2018-07-31T07:37:23.099Z,29.136047
2018-07-31T07:38:23.040Z,29.256897
2018-07-31T07:39:22.982Z,29.377747
2018-07-31T07:40:22.949Z,29.488525
2018-07-31T07:41:22.899Z,29.609375
2018-07-31T07:42:22.848Z,29.750366
2018-07-31T07:43:22.794Z,29.911499
2018-07-31T07:44:22.745Z,30.122986
2018-07-31T07:45:22.685Z,30.274048
2018-07-31T07:46:22.673Z,30.455322
2018-07-31T07:47:22.584Z,30.646667
2018-07-31T07:48:22.541Z,30.838013
2018-07-31T07:49:22.518Z,30.989075
2018-07-31T07:50:22.404Z,31.119995
2018-07-31T07:51:22.347Z,31.220703
2018-07-31T07:52:22.251Z,31.291199
2018-07-31T07:53:22.196Z,31.331482
2018-07-31T07:54:22.199Z,31.401978
2018-07-31T07:55:22.040Z,31.462402
2018-07-31T07:56:21.964Z,31.462402
2018-07-31T07:57:21.918Z,31.512756
2018-07-31T07:58:21.834Z,31.522827
2018-07-31T07:59:21.755Z,31.472473
2018-07-31T08:00:21.678Z,31.401978
2018-07-31T08:01:21.595Z,31.361694
2018-07-31T08:02:21.528Z,31.341553
2018-07-31T08:03:21.435Z,31.341553
2018-07-31T08:04:21.365Z,31.361694
2018-07-31T08:05:21.302Z,31.391907
2018-07-31T08:06:21.240Z,31.442261
2018-07-31T08:07:21.133Z,31.522827
2018-07-31T08:08:21.889Z,31.56311
2018-07-31T08:09:20.954Z,31.613464
2018-07-31T08:10:20.868Z,31.623535
2018-07-31T08:11:20.801Z,31.714172
2018-07-31T08:12:20.742Z,31.80481
2018-07-31T08:13:20.619Z,31.895447
2018-07-31T08:14:20.549Z,31.996155
2018-07-31T08:15:20.467Z,32.086792
2018-07-31T08:16:20.379Z,32.30835
2018-07-31T08:17:20.295Z,32.459412
2018-07-31T08:18:20.244Z,32.600403
2018-07-31T08:19:20.119Z,32.751465
2018-07-31T08:20:20.019Z,32.902527
2018-07-31T08:21:19.937Z,32.922668
2018-07-31T08:22:19.852Z,33.07373
2018-07-31T08:23:19.784Z,33.093872
2018-07-31T08:24:19.662Z,33.174438
2018-07-31T08:25:19.550Z,33.275146
2018-07-31T08:26:19.454Z,33.426208
2018-07-31T08:27:19.337Z,33.637695
2018-07-31T08:28:19.241Z,33.808899
2018-07-31T08:29:19.123Z,34.080811
2018-07-31T08:30:19.041Z,34.332581
2018-07-31T08:31:18.935Z,34.624634
2018-07-31T08:32:18.811Z,34.967041
2018-07-31T08:33:18.715Z,35.299377
2018-07-31T08:34:18.589Z,35.611572
2018-07-31T08:35:18.439Z,35.933838
2018-07-31T08:36:18.363Z,36.266174
2018-07-31T08:37:18.088Z,36.618652
2018-07-31T08:38:17.934Z,36.991272
2018-07-31T08:39:17.798Z,37.303467
2018-07-31T08:40:17.664Z,37.545166
2018-07-31T08:41:17.575Z,37.827148
2018-07-31T08:42:17.350Z,38.119202
2018-07-31T08:43:17.184Z,38.451538
2018-07-31T08:44:17.013Z,38.793945
2018-07-31T08:45:16.867Z,39.10614
2018-07-31T08:46:16.700Z,39.428406
2018-07-31T08:47:16.523Z,39.740601
2018-07-31T08:48:16.372Z,40.042725
2018-07-31T08:49:16.168Z,40.143433
2018-07-31T08:50:15.980Z,39.972229
2018-07-31T08:51:15.817Z,39.801025
2018-07-31T08:52:15.594Z,39.599609
2018-07-31T08:53:15.408Z,39.488831
2018-07-31T08:54:15.227Z,39.488831
2018-07-31T08:55:15.029Z,39.559326
2018-07-31T08:56:14.954Z,39.750671
2018-07-31T08:57:14.693Z,40.052795
2018-07-31T08:58:14.497Z,40.405273
2018-07-31T08:59:14.282Z,40.798035
2018-07-31T09:00:14.100Z,41.180725
2018-07-31T09:01:13.894Z,41.452637
2018-07-31T09:02:13.657Z,41.714478
2018-07-31T09:03:13.463Z,42.006531
2018-07-31T09:04:13.272Z,42.389221
2018-07-31T09:05:13.050Z,42.721558
2018-07-31T09:06:12.882Z,43.084106
2018-07-31T09:07:12.613Z,43.406372
2018-07-31T09:08:12.396Z,43.789062
2018-07-31T09:09:12.140Z,44.111328
2018-07-31T09:10:11.903Z,44.494019
2018-07-31T09:11:11.669Z,44.836426
2018-07-31T09:12:11.515Z,45.128479
2018-07-31T09:13:11.215Z,45.440674
2018-07-31T09:14:11.019Z,45.581665
2018-07-31T09:15:10.762Z,45.611877
2018-07-31T09:16:10.494Z,45.611877
2018-07-31T09:17:10.251Z,45.531311
2018-07-31T09:18:10.027Z,45.430603
2018-07-31T09:19:09.761Z,45.460815
2018-07-31T09:20:09.562Z,45.400391
2018-07-31T09:21:09.257Z,45.289612
2018-07-31T09:22:08.999Z,45.148621
2018-07-31T09:23:08.751Z,44.967346
2018-07-31T09:24:08.508Z,44.755859
2018-07-31T09:25:08.254Z,44.494019
2018-07-31T09:26:08.016Z,44.181824
2018-07-31T09:27:07.760Z,43.789062
2018-07-31T09:28:07.518Z,43.345947
2018-07-31T09:29:07.279Z,42.973328
2018-07-31T09:30:07.094Z,42.550354
2018-07-31T09:31:07.028Z,42.207947
2018-07-31T09:32:06.617Z,41.986389
2018-07-31T09:33:06.401Z,41.845398
2018-07-31T09:34:06.169Z,41.704407
2018-07-31T09:35:05.945Z,41.62384
2018-07-31T09:36:05.730Z,41.553345
2018-07-31T09:37:05.501Z,41.412354
2018-07-31T09:38:05.330Z,41.24115
2018-07-31T09:39:05.048Z,40.949097
2018-07-31T09:40:04.832Z,40.646973
2018-07-31T09:41:04.636Z,40.344849
2018-07-31T09:42:04.457Z,40.183716
2018-07-31T09:43:04.215Z,40.083008
2018-07-31T09:44:04.069Z,40.062866
2018-07-31T09:45:03.793Z,40.093079
2018-07-31T09:46:03.582Z,40.153503
2018-07-31T09:47:03.362Z,40.314636
2018-07-31T09:48:03.157Z,40.375061
2018-07-31T09:49:02.945Z,40.425415
2018-07-31T09:50:02.717Z,40.455627
2018-07-31T09:51:02.532Z,40.455627
2018-07-31T09:52:02.295Z,40.435486
2018-07-31T09:53:02.157Z,40.405273
2018-07-31T09:54:01.889Z,40.375061
2018-07-31T09:55:01.669Z,40.405273
2018-07-31T09:56:01.458Z,40.425415
2018-07-31T09:57:01.257Z,40.48584
2018-07-31T09:58:01.052Z,40.505981
2018-07-31T09:59:00.874Z,40.556335
2018-07-31T10:00:00.652Z,40.677185
2018-07-31T10:01:00.418Z,40.818176
2018-07-31T10:02:00.273Z,41.069946
2018-07-31T10:02:59.993Z,41.281433
2018-07-31T10:03:59.781Z,41.563416
2018-07-31T10:04:59.604Z,41.815186
2018-07-31T10:05:59.354Z,42.097168
2018-07-31T10:06:59.632Z,42.348938
2018-07-31T10:07:58.877Z,42.580566
2018-07-31T10:08:58.657Z,42.781982
2018-07-31T10:09:58.522Z,42.953186
2018-07-31T10:10:58.189Z,43.084106
2018-07-31T10:11:58.009Z,43.25531
2018-07-31T10:12:57.775Z,43.325806
2018-07-31T10:13:57.621Z,43.345947
2018-07-31T10:15:03.017Z,43.406372
2018-07-31T10:15:57.024Z,43.476868
2018-07-31T10:16:56.815Z,43.577576
2018-07-31T10:17:56.617Z,43.648071
2018-07-31T10:18:56.343Z,43.688354
2018-07-31T10:19:57.083Z,43.607788
2018-07-31T10:20:55.839Z,43.537292
2018-07-31T10:21:55.602Z,43.476868
2018-07-31T10:22:55.374Z,43.305664
2018-07-31T10:23:55.160Z,43.164673
2018-07-31T10:24:54.899Z,42.953186
2018-07-31T10:25:54.719Z,42.761841
2018-07-31T10:26:55.441Z,42.550354
2018-07-31T10:27:54.209Z,42.429504
2018-07-31T10:28:54.004Z,42.24823
2018-07-31T10:29:53.779Z,42.066956
2018-07-31T10:30:53.661Z,41.936035
2018-07-31T10:31:53.295Z,41.784973
2018-07-31T10:32:53.076Z,41.684265
2018-07-31T10:33:52.851Z,41.664124
2018-07-31T10:34:52.647Z,41.62384
2018-07-31T10:35:52.455Z,41.714478
2018-07-31T10:36:52.180Z,41.724548
2018-07-31T10:37:52.047Z,41.825256
2018-07-31T10:38:51.725Z,41.936035
2018-07-31T10:39:51.501Z,42.006531
2018-07-31T10:40:51.288Z,42.12738
2018-07-31T10:41:52.070Z,42.11731
2018-07-31T10:42:50.845Z,42.157593
2018-07-31T10:43:50.656Z,42.097168
2018-07-31T10:44:50.411Z,41.986389
2018-07-31T10:45:50.177Z,41.815186
2018-07-31T10:46:49.959Z,41.603699
2018-07-31T10:47:49.781Z,41.382141
2018-07-31T10:48:49.533Z,41.100159
2018-07-31T10:49:49.350Z,40.838318
2018-07-31T10:50:49.102Z,40.586548
2018-07-31T10:51:48.894Z,40.354919
2018-07-31T10:52:48.700Z,40.123291
2018-07-31T10:53:48.546Z,39.942017
2018-07-31T10:54:49.304Z,39.831238
2018-07-31T10:55:48.087Z,39.700317
2018-07-31T10:56:47.887Z,39.559326
2018-07-31T10:57:47.688Z,39.398193
2018-07-31T10:58:47.548Z,39.287415
2018-07-31T10:59:47.370Z,39.186707
2018-07-31T11:00:47.112Z,39.166565
2018-07-31T11:01:46.896Z,39.065857
2018-07-31T11:02:46.770Z,39.055786
2018-07-31T11:03:46.575Z,38.945007
2018-07-31T11:04:46.336Z,38.985291
2018-07-31T11:05:46.173Z,39.055786
2018-07-31T11:06:45.976Z,39.055786
2018-07-31T11:07:45.767Z,39.146423
2018-07-31T11:08:45.624Z,39.287415
2018-07-31T11:09:45.483Z,39.378052
2018-07-31T11:10:45.201Z,39.529114
2018-07-31T11:11:45.023Z,39.720459
2018-07-31T11:12:44.836Z,40.002441
2018-07-31T11:13:44.622Z,40.304565
2018-07-31T11:14:44.421Z,40.61676
2018-07-31T11:15:44.266Z,40.918884
2018-07-31T11:16:44.128Z,41.281433
2018-07-31T11:17:44.003Z,41.654053
2018-07-31T11:18:43.624Z,42.006531
2018-07-31T11:19:44.386Z,42.429504
2018-07-31T11:20:43.218Z,42.741699
2018-07-31T11:21:42.945Z,43.033752
2018-07-31T11:22:42.747Z,43.235168
2018-07-31T11:23:42.528Z,43.345947
2018-07-31T11:24:42.496Z,43.486938
2018-07-31T11:25:42.046Z,43.688354
2018-07-31T11:26:41.881Z,43.889771